createdAt,value
2023-03-29T00:00:01.842Z,15.76
2023-03-29T00:02:39.091Z,15.73
2023-03-29T00:05:06.860Z,15.74
2023-03-29T00:07:33.899Z,15.69
2023-03-29T00:10:02.765Z,15.67
2023-03-29T00:12:29.732Z,15.61
2023-03-29T00:14:57.445Z,15.63
2023-03-29T00:17:24.378Z,15.62
2023-03-29T00:19:51.499Z,15.58
2023-03-29T00:22:18.447Z,15.59
2023-03-29T00:24:47.901Z,15.59
2023-03-29T00:27:17.991Z,15.59
2023-03-29T00:30:10.375Z,15.57
2023-03-29T00:32:38.140Z,15.54
2023-03-29T00:35:06.567Z,15.52
2023-03-29T00:37:34.066Z,15.50
2023-03-29T00:40:01.225Z,15.50
2023-03-29T00:42:28.400Z,15.49
2023-03-29T00:45:11.895Z,15.49
2023-03-29T00:47:42.859Z,15.46
2023-03-29T00:50:22.601Z,15.46
2023-03-29T00:52:56.753Z,15.45
2023-03-29T00:55:27.857Z,15.41
2023-03-29T00:57:58.052Z,15.38
2023-03-29T01:00:33.621Z,15.38
2023-03-29T01:03:09.067Z,15.38
2023-03-29T01:05:40.696Z,15.33
2023-03-29T01:08:25.821Z,15.34
2023-03-29T01:10:53.100Z,15.30
2023-03-29T01:13:29.123Z,15.30
2023-03-29T01:15:58.480Z,15.30
2023-03-29T01:18:25.581Z,15.30
2023-03-29T01:21:15.498Z,15.28
2023-03-29T01:24:07.336Z,15.29
2023-03-29T01:26:44.096Z,15.24
2023-03-29T01:29:32.884Z,15.24
2023-03-29T01:32:09.081Z,15.21
2023-03-29T01:34:44.505Z,15.20
2023-03-29T01:37:15.801Z,15.19
2023-03-29T01:39:42.848Z,15.12
2023-03-29T01:42:15.808Z,15.15
2023-03-29T01:45:08.023Z,15.15
2023-03-29T01:47:47.528Z,15.16
2023-03-29T01:50:14.604Z,15.13
2023-03-29T01:52:49.806Z,15.15
2023-03-29T01:55:22.588Z,15.15
2023-03-29T01:57:52.733Z,15.14
2023-03-29T02:00:24.974Z,15.13
2023-03-29T02:02:55.211Z,15.12
2023-03-29T02:05:24.571Z,15.11
2023-03-29T02:07:53.024Z,15.09
2023-03-29T02:10:21.548Z,15.08
2023-03-29T02:12:48.625Z,15.03
2023-03-29T02:15:21.927Z,15.04
2023-03-29T02:17:51.066Z,15.04
2023-03-29T02:20:26.775Z,15.02
2023-03-29T02:23:05.384Z,15.02
2023-03-29T02:25:32.801Z,14.97
2023-03-29T02:28:00.984Z,14.98
2023-03-29T02:30:55.176Z,14.99
2023-03-29T02:33:59.231Z,14.96
2023-03-29T02:36:43.284Z,14.94
2023-03-29T02:39:15.842Z,14.92
2023-03-29T02:41:47.234Z,14.90
2023-03-29T02:44:21.734Z,14.91
2023-03-29T02:46:56.942Z,14.89
2023-03-29T02:49:24.522Z,14.86
2023-03-29T02:51:54.243Z,14.88
2023-03-29T02:54:26.048Z,14.84
2023-03-29T02:56:59.551Z,14.88
2023-03-29T02:59:29.951Z,14.88
2023-03-29T03:01:57.104Z,14.87
2023-03-29T03:04:26.051Z,14.81
2023-03-29T03:06:53.570Z,14.81
2023-03-29T03:09:24.278Z,14.86
2023-03-29T03:11:52.864Z,14.83
2023-03-29T03:14:23.009Z,14.79
2023-03-29T03:16:50.694Z,14.79
2023-03-29T03:19:18.284Z,14.74
2023-03-29T03:21:47.124Z,14.76
2023-03-29T03:24:15.704Z,14.77
2023-03-29T03:26:42.762Z,14.76
2023-03-29T03:29:09.849Z,14.75
2023-03-29T03:32:04.405Z,14.73
2023-03-29T03:34:54.376Z,14.72
2023-03-29T03:37:26.091Z,14.71
2023-03-29T03:39:53.707Z,14.69
2023-03-29T03:42:20.939Z,14.67
2023-03-29T03:44:47.950Z,14.67
2023-03-29T03:47:33.285Z,14.65
2023-03-29T03:50:13.897Z,14.64
2023-03-29T03:52:41.087Z,14.65
2023-03-29T03:55:09.465Z,14.62
2023-03-29T03:58:02.014Z,14.58
2023-03-29T04:00:29.782Z,14.55
2023-03-29T04:03:14.196Z,14.54
2023-03-29T04:05:43.512Z,14.55
2023-03-29T04:08:12.653Z,14.51
2023-03-29T04:11:07.546Z,14.51
2023-03-29T04:13:37.449Z,14.51
2023-03-29T04:16:25.332Z,14.46
2023-03-29T04:18:53.961Z,14.42
2023-03-29T04:21:22.812Z,14.45
2023-03-29T04:23:49.898Z,14.36
2023-03-29T04:26:18.162Z,14.36
2023-03-29T04:28:51.387Z,14.38
2023-03-29T04:31:23.429Z,14.38
2023-03-29T04:34:01.865Z,14.34
2023-03-29T04:36:29.038Z,14.35
2023-03-29T04:38:56.093Z,14.34
2023-03-29T04:41:27.554Z,14.35
2023-03-29T04:44:11.689Z,14.30
2023-03-29T04:46:40.348Z,14.29
2023-03-29T04:49:32.745Z,14.26
2023-03-29T04:52:01.048Z,14.29
2023-03-29T04:54:30.955Z,14.29
2023-03-29T04:57:36.220Z,14.27
2023-03-29T05:00:17.749Z,14.27
2023-03-29T05:03:07.862Z,14.27
2023-03-29T05:05:39.195Z,14.28
2023-03-29T05:08:07.299Z,14.28
2023-03-29T05:10:44.653Z,14.26
2023-03-29T05:13:12.853Z,14.25
2023-03-29T05:15:42.118Z,14.26
2023-03-29T05:18:09.793Z,14.23
2023-03-29T05:20:37.873Z,14.26
2023-03-29T05:23:05.081Z,14.25
2023-03-29T05:25:58.198Z,14.25
2023-03-29T05:28:25.259Z,14.24
2023-03-29T05:31:10.441Z,14.25
2023-03-29T05:33:39.894Z,14.22
2023-03-29T05:36:11.285Z,14.19
2023-03-29T05:38:49.999Z,14.16
2023-03-29T05:41:18.824Z,14.16
2023-03-29T05:44:04.275Z,14.17
2023-03-29T05:46:31.974Z,14.23
2023-03-29T05:49:02.750Z,14.29
2023-03-29T05:51:57.045Z,14.40
2023-03-29T05:54:25.919Z,14.59
2023-03-29T05:57:11.411Z,14.79
2023-03-29T05:59:39.830Z,15.09
2023-03-29T06:02:07.322Z,15.35
2023-03-29T06:04:40.039Z,15.59
2023-03-29T06:07:27.282Z,16.04
2023-03-29T06:10:12.867Z,16.49
2023-03-29T06:12:43.931Z,16.97
2023-03-29T06:15:12.851Z,17.41
2023-03-29T06:18:12.606Z,17.86
2023-03-29T06:20:39.744Z,18.30
2023-03-29T06:23:12.309Z,18.78
2023-03-29T06:25:39.673Z,19.20
2023-03-29T06:28:07.556Z,19.64
2023-03-29T06:30:35.222Z,20.05
2023-03-29T06:33:03.005Z,20.30
2023-03-29T06:35:56.770Z,20.91
2023-03-29T06:38:28.755Z,21.39
2023-03-29T06:41:06.399Z,21.89
2023-03-29T06:44:09.099Z,22.48
2023-03-29T06:47:01.903Z,22.77
2023-03-29T06:49:30.423Z,23.20
2023-03-29T06:52:04.687Z,23.59
2023-03-29T06:54:32.104Z,24.11
2023-03-29T06:57:03.539Z,24.66
2023-03-29T06:59:32.358Z,25.10
2023-03-29T07:02:12.730Z,25.47
2023-03-29T07:04:47.718Z,25.96
2023-03-29T07:07:55.313Z,26.45
2023-03-29T07:10:47.611Z,26.98
2023-03-29T07:13:27.761Z,27.22
2023-03-29T07:15:58.641Z,27.66
2023-03-29T07:18:51.614Z,28.11
2023-03-29T07:21:38.076Z,28.65
2023-03-29T07:24:06.950Z,29.09
2023-03-29T07:26:36.068Z,29.20
2023-03-29T07:29:03.318Z,29.48
2023-03-29T07:31:30.875Z,30.12
2023-03-29T07:34:18.700Z,30.68
2023-03-29T07:36:45.882Z,31.13
2023-03-29T07:39:13.769Z,31.45
2023-03-29T07:41:44.317Z,31.89
2023-03-29T07:44:13.995Z,32.16
2023-03-29T07:46:43.343Z,32.64
2023-03-29T07:49:10.753Z,32.72
2023-03-29T07:51:38.222Z,33.22
2023-03-29T07:54:10.912Z,33.67
2023-03-29T07:56:38.045Z,34.03
2023-03-29T07:59:25.247Z,34.06
2023-03-29T08:02:02.726Z,34.35
2023-03-29T08:04:34.898Z,34.83
2023-03-29T08:07:20.092Z,35.07
2023-03-29T08:09:56.161Z,35.52
2023-03-29T08:12:33.760Z,35.70
2023-03-29T08:15:02.060Z,35.75
2023-03-29T08:17:34.974Z,35.91
2023-03-29T08:20:10.919Z,35.80
2023-03-29T08:22:40.713Z,35.98
2023-03-29T08:25:23.403Z,36.62
2023-03-29T08:27:53.718Z,36.50
2023-03-29T08:30:53.732Z,36.67
2023-03-29T08:33:22.297Z,37.07
2023-03-29T08:35:59.261Z,37.50
2023-03-29T08:38:30.228Z,37.74
2023-03-29T08:40:57.571Z,38.07
2023-03-29T08:43:36.795Z,38.70
2023-03-29T08:46:19.025Z,38.74
2023-03-29T08:48:54.529Z,39.52
2023-03-29T08:51:31.997Z,40.10
2023-03-29T08:54:04.407Z,39.92
2023-03-29T08:56:51.478Z,40.12
2023-03-29T08:59:33.333Z,40.47
2023-03-29T09:02:12.824Z,39.99
2023-03-29T09:04:40.642Z,40.36
2023-03-29T09:07:37.510Z,39.92
2023-03-29T09:10:05.295Z,40.65
2023-03-29T09:13:08.113Z,40.73
2023-03-29T09:15:48.962Z,40.86
2023-03-29T09:19:07.048Z,40.87
2023-03-29T09:21:40.805Z,40.82
2023-03-29T09:24:23.368Z,41.30
2023-03-29T09:27:00.920Z,41.34
2023-03-29T09:29:50.677Z,41.07
2023-03-29T09:32:26.762Z,41.35
2023-03-29T09:35:29.894Z,40.86
2023-03-29T09:37:58.285Z,40.96
2023-03-29T09:40:53.907Z,41.01
2023-03-29T09:43:32.362Z,41.19
2023-03-29T09:46:04.379Z,40.90
2023-03-29T09:48:37.938Z,41.25
2023-03-29T09:51:07.997Z,40.83
2023-03-29T09:53:37.462Z,41.05
2023-03-29T09:56:19.134Z,41.50
2023-03-29T09:58:51.895Z,41.44
2023-03-29T10:01:19.940Z,41.38
2023-03-29T10:03:52.527Z,41.44
2023-03-29T10:06:23.985Z,41.32
2023-03-29T10:08:59.072Z,41.24
2023-03-29T10:11:37.160Z,41.34
2023-03-29T10:14:25.671Z,41.11
2023-03-29T10:16:56.976Z,40.83
2023-03-29T10:19:31.065Z,40.50
2023-03-29T10:22:00.889Z,40.43
2023-03-29T10:24:28.331Z,40.47
2023-03-29T10:27:00.225Z,39.73
2023-03-29T10:29:28.226Z,38.51
2023-03-29T10:31:55.344Z,38.95
2023-03-29T10:34:26.262Z,38.68
2023-03-29T10:37:02.645Z,37.76
2023-03-29T10:39:34.102Z,38.06
2023-03-29T10:42:04.590Z,37.71
2023-03-29T10:44:35.048Z,37.98
2023-03-29T10:47:17.140Z,37.71
2023-03-29T10:49:47.730Z,37.21
2023-03-29T10:52:16.711Z,37.00
2023-03-29T10:54:44.818Z,36.31
2023-03-29T10:57:16.887Z,35.68
2023-03-29T10:59:56.104Z,35.22
2023-03-29T11:02:49.163Z,34.65
2023-03-29T11:05:24.625Z,33.86
2023-03-29T11:08:13.361Z,33.30
2023-03-29T11:10:58.833Z,32.81
2023-03-29T11:13:43.995Z,32.14
2023-03-29T11:16:38.137Z,31.86
2023-03-29T11:19:18.055Z,32.44
2023-03-29T11:22:17.028Z,32.41
2023-03-29T11:25:12.868Z,32.51
2023-03-29T11:27:59.308Z,32.09
2023-03-29T11:30:39.982Z,31.45
2023-03-29T11:33:30.065Z,30.85
2023-03-29T11:36:17.799Z,29.99
2023-03-29T11:39:12.220Z,29.23
2023-03-29T11:41:43.330Z,28.68
2023-03-29T11:44:31.791Z,28.23
2023-03-29T11:47:31.931Z,27.91
2023-03-29T11:50:19.771Z,27.51
2023-03-29T11:53:05.421Z,27.10
2023-03-29T11:55:36.673Z,27.00
2023-03-29T11:58:16.684Z,26.52
2023-03-29T12:00:52.903Z,26.27
2023-03-29T12:03:32.883Z,26.05
2023-03-29T12:06:20.064Z,25.82
2023-03-29T12:08:54.879Z,25.73
2023-03-29T12:11:37.451Z,25.56
2023-03-29T12:14:14.662Z,25.29
2023-03-29T12:16:53.551Z,25.16
2023-03-29T12:19:39.763Z,25.00
2023-03-29T12:22:09.324Z,24.92
2023-03-29T12:24:43.745Z,24.98
2023-03-29T12:27:26.662Z,24.86
2023-03-29T12:30:27.638Z,24.76
2023-03-29T12:33:24.239Z,24.72
2023-03-29T12:36:21.635Z,24.72
2023-03-29T12:39:16.303Z,24.75
2023-03-29T12:42:18.075Z,24.68
2023-03-29T12:45:03.868Z,24.49
2023-03-29T12:47:44.815Z,24.42
2023-03-29T12:50:25.689Z,24.30
2023-03-29T12:52:53.168Z,24.23
2023-03-29T12:55:32.966Z,24.29
2023-03-29T12:58:05.610Z,24.20
2023-03-29T13:01:11.619Z,24.11
2023-03-29T13:03:48.673Z,24.12
2023-03-29T13:06:45.584Z,23.75
2023-03-29T13:09:30.870Z,23.59
2023-03-29T13:12:08.194Z,23.58
2023-03-29T13:14:38.130Z,23.60
2023-03-29T13:17:18.124Z,23.53
2023-03-29T13:19:52.152Z,23.41
2023-03-29T13:22:37.477Z,23.39
2023-03-29T13:25:26.372Z,23.26
2023-03-29T13:28:06.221Z,23.25
2023-03-29T13:30:59.673Z,23.25
2023-03-29T13:33:44.996Z,23.15
2023-03-29T13:36:18.075Z,23.16
2023-03-29T13:38:54.311Z,23.18
2023-03-29T13:41:39.172Z,23.15
2023-03-29T13:44:23.209Z,22.92
2023-03-29T13:47:06.095Z,22.88
2023-03-29T13:49:35.717Z,23.00
2023-03-29T13:52:13.674Z,22.90
2023-03-29T13:54:52.643Z,22.96
2023-03-29T13:57:25.298Z,22.91
2023-03-29T14:00:31.653Z,22.87
2023-03-29T14:03:02.241Z,22.85
2023-03-29T14:05:41.817Z,22.86
2023-03-29T14:08:44.555Z,22.83
2023-03-29T14:11:26.699Z,22.82
2023-03-29T14:13:58.864Z,22.83
2023-03-29T14:16:32.785Z,22.57
2023-03-29T14:19:03.000Z,22.58
2023-03-29T14:21:30.628Z,22.61
2023-03-29T14:24:02.358Z,22.64
2023-03-29T14:26:34.638Z,22.58
2023-03-29T14:29:02.920Z,22.60
2023-03-29T14:31:35.583Z,22.49
2023-03-29T14:34:06.276Z,22.47
2023-03-29T14:36:34.281Z,22.32
2023-03-29T14:39:17.932Z,22.30
2023-03-29T14:41:51.594Z,22.33
2023-03-29T14:44:21.954Z,22.15
2023-03-29T14:46:49.018Z,22.04
2023-03-29T14:49:20.858Z,21.93
2023-03-29T14:51:49.338Z,22.00
2023-03-29T14:54:27.047Z,21.94
2023-03-29T14:56:55.621Z,21.89
2023-03-29T14:59:27.530Z,21.81
2023-03-29T15:01:54.896Z,21.74
2023-03-29T15:04:21.961Z,21.70
2023-03-29T15:06:53.002Z,21.71
2023-03-29T15:09:32.669Z,21.68
2023-03-29T15:12:01.805Z,21.58
2023-03-29T15:14:35.557Z,21.64
2023-03-29T15:17:17.038Z,21.51
2023-03-29T15:19:44.260Z,21.44
2023-03-29T15:22:11.990Z,21.43
2023-03-29T15:24:47.539Z,21.41
2023-03-29T15:27:17.464Z,21.41
2023-03-29T15:29:46.952Z,21.34
2023-03-29T15:32:24.952Z,21.37
2023-03-29T15:34:59.819Z,21.41
2023-03-29T15:37:27.483Z,21.36
2023-03-29T15:39:54.441Z,21.39
2023-03-29T15:42:21.740Z,21.40
2023-03-29T15:44:48.748Z,21.51
2023-03-29T15:47:15.668Z,21.49
2023-03-29T15:49:42.562Z,21.48
2023-03-29T15:52:09.392Z,21.43
2023-03-29T15:54:37.336Z,21.47
2023-03-29T15:57:07.609Z,21.44
2023-03-29T15:59:36.486Z,21.33
2023-03-29T16:02:04.601Z,21.30
2023-03-29T16:04:31.533Z,21.28
2023-03-29T16:06:58.610Z,21.31
2023-03-29T16:09:25.908Z,21.26
2023-03-29T16:11:52.928Z,21.21
2023-03-29T16:14:24.302Z,21.20
2023-03-29T16:16:52.583Z,21.25
2023-03-29T16:19:19.703Z,21.24
2023-03-29T16:21:46.705Z,21.18
2023-03-29T16:24:24.196Z,21.15
2023-03-29T16:26:54.770Z,21.14
2023-03-29T16:29:23.201Z,21.15
2023-03-29T16:31:50.724Z,21.17
2023-03-29T16:34:18.912Z,21.07
2023-03-29T16:36:47.649Z,21.07
2023-03-29T16:39:15.247Z,21.07
2023-03-29T16:41:42.845Z,21.07
2023-03-29T16:44:15.980Z,21.09
2023-03-29T16:46:42.929Z,21.05
2023-03-29T16:49:14.094Z,21.07
2023-03-29T16:51:41.114Z,21.11
2023-03-29T16:54:09.333Z,21.05
2023-03-29T16:56:36.899Z,20.99
2023-03-29T16:59:04.138Z,20.96
2023-03-29T17:01:31.584Z,20.92
2023-03-29T17:03:58.549Z,20.92
2023-03-29T17:06:26.592Z,20.93
2023-03-29T17:08:53.888Z,20.91
2023-03-29T17:11:23.714Z,20.94
2023-03-29T17:13:50.809Z,20.86
2023-03-29T17:16:18.225Z,20.83
2023-03-29T17:18:45.194Z,20.70
2023-03-29T17:21:12.171Z,20.70
2023-03-29T17:23:39.035Z,20.69
2023-03-29T17:26:07.170Z,20.59
2023-03-29T17:28:34.670Z,20.52
2023-03-29T17:31:07.124Z,20.50
2023-03-29T17:33:34.626Z,20.48
2023-03-29T17:36:01.833Z,20.40
2023-03-29T17:38:30.754Z,20.35
2023-03-29T17:40:57.766Z,20.28
2023-03-29T17:43:24.704Z,20.15
2023-03-29T17:45:52.924Z,20.00
2023-03-29T17:48:20.452Z,19.93
2023-03-29T17:50:47.467Z,19.83
2023-03-29T17:53:14.434Z,19.76
2023-03-29T17:55:41.464Z,19.66
2023-03-29T17:58:08.618Z,19.65
2023-03-29T18:00:35.843Z,19.61
2023-03-29T18:03:03.275Z,19.62
2023-03-29T18:05:30.153Z,19.62
2023-03-29T18:07:57.411Z,19.47
2023-03-29T18:10:24.416Z,19.48
2023-03-29T18:12:51.872Z,19.48
2023-03-29T18:15:18.826Z,19.47
2023-03-29T18:17:46.190Z,19.41
2023-03-29T18:20:13.919Z,19.37
2023-03-29T18:22:41.912Z,19.35
2023-03-29T18:25:09.761Z,19.29
2023-03-29T18:27:38.178Z,19.26
2023-03-29T18:30:06.605Z,19.22
2023-03-29T18:32:33.669Z,19.12
2023-03-29T18:35:02.432Z,19.06
2023-03-29T18:37:29.469Z,19.03
2023-03-29T18:39:57.055Z,19.01
2023-03-29T18:42:24.014Z,19.01
2023-03-29T18:44:53.333Z,19.03
2023-03-29T18:47:20.288Z,19.01
2023-03-29T18:49:47.323Z,18.98
2023-03-29T18:52:14.361Z,18.95
2023-03-29T18:54:41.646Z,18.93
2023-03-29T18:57:08.746Z,18.88
2023-03-29T18:59:38.642Z,18.88
2023-03-29T19:02:06.161Z,18.79
2023-03-29T19:04:33.119Z,18.80
2023-03-29T19:07:01.532Z,18.80
2023-03-29T19:09:28.698Z,18.73
2023-03-29T19:11:55.773Z,18.74
2023-03-29T19:14:25.271Z,18.75
2023-03-29T19:16:52.924Z,18.67
2023-03-29T19:19:22.597Z,18.64
2023-03-29T19:21:50.238Z,18.63
2023-03-29T19:24:17.921Z,18.62
2023-03-29T19:26:47.958Z,18.58
2023-03-29T19:29:15.525Z,18.52
2023-03-29T19:31:42.813Z,18.51
2023-03-29T19:34:11.165Z,18.48
2023-03-29T19:36:38.617Z,18.48
2023-03-29T19:39:05.955Z,18.49
2023-03-29T19:41:32.898Z,18.46
2023-03-29T19:43:59.828Z,18.44
2023-03-29T19:46:28.436Z,18.46
2023-03-29T19:48:56.281Z,18.42
2023-03-29T19:51:23.946Z,18.39
2023-03-29T19:53:51.141Z,18.36
2023-03-29T19:56:18.224Z,18.37
2023-03-29T19:58:46.926Z,18.33
2023-03-29T20:01:15.667Z,18.33
2023-03-29T20:03:43.826Z,18.30
2023-03-29T20:06:11.055Z,18.30
2023-03-29T20:08:39.011Z,18.27
2023-03-29T20:11:10.597Z,18.28
2023-03-29T20:13:39.719Z,18.25
2023-03-29T20:16:09.022Z,18.21
2023-03-29T20:18:38.393Z,18.03
2023-03-29T20:21:06.980Z,18.03
2023-03-29T20:23:34.832Z,18.02
2023-03-29T20:26:01.879Z,18.04
2023-03-29T20:28:29.349Z,18.05
2023-03-29T20:30:56.250Z,18.03
2023-03-29T20:33:23.234Z,18.05
2023-03-29T20:35:50.247Z,18.04
2023-03-29T20:38:17.139Z,18.05
2023-03-29T20:40:47.294Z,18.04
2023-03-29T20:43:18.805Z,18.01
2023-03-29T20:45:53.589Z,18.00
2023-03-29T20:48:23.574Z,18.00
2023-03-29T20:50:51.034Z,17.95
2023-03-29T20:53:18.531Z,17.96
2023-03-29T20:55:45.616Z,17.94
2023-03-29T20:58:12.572Z,17.94
2023-03-29T21:00:40.474Z,17.94
2023-03-29T21:03:08.637Z,17.93
2023-03-29T21:05:35.897Z,17.94
2023-03-29T21:08:04.470Z,17.92
2023-03-29T21:10:31.504Z,17.91
2023-03-29T21:13:00.538Z,17.91
2023-03-29T21:15:31.083Z,17.85
2023-03-29T21:17:58.784Z,17.85
2023-03-29T21:20:25.858Z,17.83
2023-03-29T21:22:52.757Z,17.82
2023-03-29T21:25:19.800Z,17.77
2023-03-29T21:27:46.748Z,17.75
2023-03-29T21:30:13.934Z,17.76
2023-03-29T21:32:41.371Z,17.77
2023-03-29T21:35:09.423Z,17.77
2023-03-29T21:37:36.459Z,17.73
2023-03-29T21:40:08.703Z,17.74
2023-03-29T21:42:35.892Z,17.69
2023-03-29T21:45:03.350Z,17.71
2023-03-29T21:47:30.677Z,17.71
2023-03-29T21:49:57.686Z,17.69
2023-03-29T21:52:24.572Z,17.69
2023-03-29T21:54:51.584Z,17.67
2023-03-29T21:57:22.351Z,17.63
2023-03-29T21:59:49.390Z,17.55
2023-03-29T22:02:17.108Z,17.54
2023-03-29T22:04:44.167Z,17.52
2023-03-29T22:07:11.250Z,17.55
2023-03-29T22:09:41.351Z,17.55
2023-03-29T22:12:09.948Z,17.56
2023-03-29T22:14:36.808Z,17.57
2023-03-29T22:17:07.839Z,17.54
2023-03-29T22:19:39.352Z,17.53
2023-03-29T22:22:13.766Z,17.55
2023-03-29T22:24:42.364Z,17.52
2023-03-29T22:27:10.629Z,17.49
2023-03-29T22:29:37.859Z,17.45
2023-03-29T22:32:05.998Z,17.46
2023-03-29T22:34:33.291Z,17.43
2023-03-29T22:37:00.278Z,17.42
2023-03-29T22:39:27.170Z,17.37
2023-03-29T22:41:54.186Z,17.38
2023-03-29T22:44:21.214Z,17.33
2023-03-29T22:46:48.093Z,17.30
2023-03-29T22:49:15.034Z,17.23
2023-03-29T22:51:42.113Z,17.19
2023-03-29T22:54:09.083Z,17.20
2023-03-29T22:56:36.421Z,17.15
2023-03-29T22:59:03.413Z,17.11
2023-03-29T23:01:30.422Z,17.08
2023-03-29T23:03:57.501Z,17.08
2023-03-29T23:06:24.491Z,17.06
2023-03-29T23:08:51.412Z,16.96
2023-03-29T23:11:18.341Z,16.98
2023-03-29T23:13:48.925Z,16.97
2023-03-29T23:16:16.548Z,16.94
2023-03-29T23:18:43.427Z,16.92
2023-03-29T23:21:10.922Z,16.89
2023-03-29T23:23:38.855Z,16.87
2023-03-29T23:26:06.625Z,16.84
2023-03-29T23:28:34.774Z,16.84
2023-03-29T23:31:02.899Z,16.82
2023-03-29T23:33:33.721Z,16.81
2023-03-29T23:36:03.907Z,16.82
2023-03-29T23:38:32.127Z,16.79
2023-03-29T23:41:02.204Z,16.81
2023-03-29T23:43:32.805Z,16.79
2023-03-29T23:46:02.218Z,16.79
2023-03-29T23:48:29.714Z,16.76
2023-03-29T23:50:59.401Z,16.71
2023-03-29T23:53:28.834Z,16.71
2023-03-29T23:56:01.504Z,16.74
2023-03-29T23:58:29.754Z,16.73
